createdAt,value
2019-02-24T00:02:22.785Z,173.00
2019-02-24T00:04:52.669Z,180.13
2019-02-24T00:07:22.592Z,162.43
2019-02-24T00:09:53.709Z,167.73
2019-02-24T00:12:23.667Z,172.07
2019-02-24T00:14:53.552Z,156.07
2019-02-24T00:17:23.601Z,164.33
2019-02-24T00:19:53.567Z,153.90
2019-02-24T00:22:23.636Z,154.77
2019-02-24T00:24:53.517Z,151.13
2019-02-24T00:27:23.413Z,151.97
2019-02-24T00:29:53.384Z,142.73
2019-02-24T00:32:23.301Z,155.50
2019-02-24T00:34:53.282Z,135.57
2019-02-24T00:37:23.162Z,127.67
2019-02-24T00:39:54.568Z,127.70
2019-02-24T00:42:24.519Z,120.70
2019-02-24T00:44:54.362Z,119.37
2019-02-24T00:47:24.220Z,128.73
2019-02-24T00:49:54.198Z,124.10
2019-02-24T00:52:24.072Z,125.73
2019-02-24T00:54:53.918Z,120.13
2019-02-24T00:57:23.828Z,124.47
2019-02-24T00:59:53.714Z,138.80
2019-02-24T01:02:23.653Z,146.97
2019-02-24T01:04:53.630Z,139.30
2019-02-24T01:07:25.074Z,143.13
2019-02-24T01:09:54.984Z,142.80
2019-02-24T01:12:24.846Z,146.73
2019-02-24T01:14:54.793Z,163.53
2019-02-24T01:17:25.904Z,182.13
2019-02-24T01:19:55.832Z,179.03
2019-02-24T01:22:25.675Z,190.77
2019-02-24T01:24:55.587Z,182.37
2019-02-24T01:27:25.553Z,184.53
2019-02-24T01:29:55.984Z,187.17
2019-02-24T01:32:26.417Z,182.77
2019-02-24T01:34:57.436Z,192.80
2019-02-24T01:37:27.385Z,195.57
2019-02-24T01:39:57.224Z,176.97
2019-02-24T01:42:28.432Z,181.70
2019-02-24T01:44:58.322Z,174.83
2019-02-24T01:47:28.146Z,171.07
2019-02-24T01:49:58.148Z,157.03
2019-02-24T01:52:28.066Z,168.93
2019-02-24T01:54:59.673Z,151.63
2019-02-24T01:57:29.572Z,145.57
2019-02-24T01:59:59.716Z,151.13
2019-02-24T02:02:29.751Z,162.03
2019-02-24T02:05:00.824Z,161.37
2019-02-24T02:07:31.786Z,167.47
2019-02-24T02:10:01.613Z,172.40
2019-02-24T02:12:31.610Z,173.67
2019-02-24T02:15:01.634Z,187.40
2019-02-24T02:17:33.269Z,192.77
2019-02-24T02:20:04.237Z,184.30
2019-02-24T02:22:34.504Z,182.07
2019-02-24T02:25:09.833Z,173.20
2019-02-24T02:27:40.354Z,155.17
2019-02-24T02:30:11.779Z,129.30
2019-02-24T02:32:42.361Z,142.20
2019-02-24T02:35:13.349Z,127.53
2019-02-24T02:37:43.275Z,138.33
2019-02-24T02:40:13.393Z,130.40
2019-02-24T02:42:43.348Z,120.77
2019-02-24T02:45:13.342Z,114.43
2019-02-24T02:47:43.392Z,117.57
2019-02-24T02:50:13.384Z,133.47
2019-02-24T02:52:44.357Z,169.90
2019-02-24T02:55:14.657Z,148.83
2019-02-24T02:57:45.699Z,147.50
2019-02-24T03:00:32.866Z,150.87
2019-02-24T03:03:04.231Z,142.33
2019-02-24T03:05:34.523Z,147.67
2019-02-24T03:08:06.185Z,139.93
2019-02-24T03:10:37.706Z,150.97
2019-02-24T03:13:07.800Z,159.13
2019-02-24T03:15:40.320Z,158.77
2019-02-24T03:18:10.590Z,159.10
2019-02-24T03:20:40.592Z,166.83
2019-02-24T03:23:10.504Z,146.83
2019-02-24T03:25:40.503Z,159.47
2019-02-24T03:28:10.474Z,170.67
2019-02-24T03:30:42.861Z,156.37
2019-02-24T03:33:12.873Z,160.67
2019-02-24T03:35:42.704Z,162.30
2019-02-24T03:38:12.587Z,158.93
2019-02-24T03:40:42.586Z,158.63
2019-02-24T03:43:15.266Z,159.43
2019-02-24T03:45:46.938Z,150.53
2019-02-24T03:48:20.234Z,149.03
2019-02-24T03:50:51.753Z,156.03
2019-02-24T03:53:22.397Z,147.43
2019-02-24T03:55:52.947Z,139.00
2019-02-24T03:58:22.949Z,133.10
2019-02-24T04:00:53.587Z,129.63
2019-02-24T04:03:23.516Z,122.90
2019-02-24T04:05:54.944Z,125.57
2019-02-24T04:08:25.171Z,122.80
2019-02-24T04:10:55.273Z,120.27
2019-02-24T04:13:26.034Z,124.77
2019-02-24T04:15:56.336Z,129.80
2019-02-24T04:18:26.188Z,124.73
2019-02-24T04:20:56.186Z,125.43
2019-02-24T04:23:26.042Z,121.03
2019-02-24T04:25:55.985Z,114.73
2019-02-24T04:28:25.898Z,115.03
2019-02-24T04:30:55.785Z,108.83
2019-02-24T04:33:26.667Z,107.43
2019-02-24T04:35:56.873Z,110.60
2019-02-24T04:38:26.829Z,101.43
2019-02-24T04:40:56.992Z,104.37
2019-02-24T04:43:27.236Z,115.43
2019-02-24T04:45:58.752Z,101.80
2019-02-24T04:48:28.905Z,99.17
2019-02-24T04:50:59.193Z,87.90
2019-02-24T04:53:29.558Z,89.17
2019-02-24T04:55:59.444Z,90.47
2019-02-24T04:58:29.407Z,85.80
2019-02-24T05:00:59.562Z,87.67
2019-02-24T05:03:29.603Z,96.47
2019-02-24T05:06:01.138Z,101.57
2019-02-24T05:08:31.431Z,91.73
2019-02-24T05:11:01.302Z,115.40
2019-02-24T05:13:31.489Z,104.33
2019-02-24T05:16:01.340Z,105.60
2019-02-24T05:18:31.282Z,123.03
2019-02-24T05:21:01.186Z,112.53
2019-02-24T05:23:31.141Z,127.47
2019-02-24T05:26:00.985Z,125.13
2019-02-24T05:28:31.920Z,123.70
2019-02-24T05:31:01.861Z,142.97
2019-02-24T05:33:31.874Z,155.03
2019-02-24T05:36:01.812Z,163.80
2019-02-24T05:38:32.900Z,169.27
2019-02-24T05:41:02.788Z,185.77
2019-02-24T05:43:33.054Z,178.53
2019-02-24T05:46:03.062Z,189.73
2019-02-24T05:48:33.757Z,183.57
2019-02-24T05:51:03.716Z,187.83
2019-02-24T05:53:33.812Z,187.20
2019-02-24T05:56:04.057Z,189.57
2019-02-24T05:58:34.125Z,176.13
2019-02-24T06:01:04.340Z,167.17
2019-02-24T06:03:34.298Z,184.20
2019-02-24T06:06:04.181Z,177.03
2019-02-24T06:08:34.154Z,185.50
2019-02-24T06:11:04.102Z,185.67
2019-02-24T06:13:34.128Z,175.03
2019-02-24T06:16:04.254Z,184.57
2019-02-24T06:18:34.160Z,177.70
2019-02-24T06:21:04.106Z,188.90
2019-02-24T06:23:34.095Z,169.50
2019-02-24T06:26:04.387Z,176.40
2019-02-24T06:28:34.340Z,173.13
2019-02-24T06:31:04.339Z,173.73
2019-02-24T06:33:34.260Z,176.83
2019-02-24T06:36:04.343Z,169.33
2019-02-24T06:38:34.333Z,171.13
2019-02-24T06:41:04.289Z,176.63
2019-02-24T06:43:34.493Z,160.67
2019-02-24T06:46:04.618Z,177.67
2019-02-24T06:48:36.886Z,182.23
2019-02-24T06:51:08.384Z,168.27
2019-02-24T06:53:38.751Z,184.17
2019-02-24T06:56:08.732Z,172.10
2019-02-24T06:58:38.579Z,172.17
2019-02-24T07:01:08.613Z,184.80
2019-02-24T07:03:38.621Z,189.80
2019-02-24T07:06:09.633Z,197.83
2019-02-24T07:08:39.909Z,198.93
2019-02-24T07:11:09.863Z,204.53
2019-02-24T07:13:40.257Z,203.27
2019-02-24T07:16:10.143Z,202.13
2019-02-24T07:18:40.026Z,187.50
2019-02-24T07:21:10.428Z,194.77
2019-02-24T07:23:40.351Z,161.40
2019-02-24T07:26:10.253Z,186.47
2019-02-24T07:28:41.327Z,173.33
2019-02-24T07:31:11.233Z,162.37
2019-02-24T07:33:41.170Z,159.83
2019-02-24T07:36:11.137Z,157.47
2019-02-24T07:38:40.993Z,149.60
2019-02-24T07:41:10.898Z,151.80
2019-02-24T07:43:40.812Z,138.87
2019-02-24T07:46:10.967Z,129.50
2019-02-24T07:48:40.934Z,125.30
2019-02-24T07:51:12.371Z,125.50
2019-02-24T07:53:42.503Z,129.87
2019-02-24T07:56:12.422Z,118.77
2019-02-24T07:58:42.271Z,112.57
2019-02-24T08:01:12.175Z,110.37
2019-02-24T08:03:42.157Z,111.07
2019-02-24T08:06:13.586Z,122.40
2019-02-24T08:08:43.782Z,120.30
2019-02-24T08:11:13.695Z,114.23
2019-02-24T08:13:44.093Z,108.03
2019-02-24T08:16:14.189Z,113.47
2019-02-24T08:18:49.483Z,116.03
2019-02-24T08:21:15.733Z,114.80
2019-02-24T08:23:47.229Z,107.73
2019-02-24T08:26:17.223Z,110.10
2019-02-24T08:28:47.110Z,100.97
2019-02-24T08:31:19.406Z,100.90
2019-02-24T08:33:49.352Z,100.07
2019-02-24T08:36:19.774Z,97.27
2019-02-24T08:38:49.626Z,99.40
2019-02-24T08:41:19.581Z,102.07
2019-02-24T08:43:52.787Z,98.83
2019-02-24T08:46:22.865Z,85.27
2019-02-24T08:48:54.174Z,89.90
2019-02-24T08:51:25.387Z,88.10
2019-02-24T08:53:55.353Z,90.10
2019-02-24T08:56:25.846Z,91.43
2019-02-24T08:58:55.922Z,95.27
2019-02-24T09:01:26.229Z,92.87
2019-02-24T09:03:56.227Z,94.20
2019-02-24T09:06:26.253Z,100.33
2019-02-24T09:08:56.157Z,88.37
2019-02-24T09:11:26.097Z,77.83
2019-02-24T09:13:55.984Z,81.90
2019-02-24T09:16:25.980Z,78.60
2019-02-24T09:18:55.937Z,79.30
2019-02-24T09:21:26.559Z,78.27
2019-02-24T09:23:58.654Z,77.87
2019-02-24T09:26:28.627Z,75.43
2019-02-24T09:28:58.517Z,71.80
2019-02-24T09:31:28.583Z,76.77
2019-02-24T09:33:58.855Z,69.90
2019-02-24T09:36:29.292Z,74.33
2019-02-24T09:38:59.636Z,70.07
2019-02-24T09:41:29.574Z,77.53
2019-02-24T09:43:59.503Z,77.13
2019-02-24T09:46:29.627Z,74.50
2019-02-24T09:49:01.197Z,70.63
2019-02-24T09:51:31.173Z,79.90
2019-02-24T09:54:01.710Z,76.63
2019-02-24T09:56:31.855Z,80.63
2019-02-24T09:59:01.891Z,83.43
2019-02-24T10:01:32.920Z,91.90
2019-02-24T10:04:03.371Z,79.53
2019-02-24T10:06:33.657Z,80.47
2019-02-24T10:09:04.752Z,85.50
2019-02-24T10:11:36.255Z,81.60
2019-02-24T10:14:06.253Z,94.10
2019-02-24T10:16:42.566Z,88.57
2019-02-24T10:19:11.894Z,77.20
2019-02-24T10:21:41.899Z,88.23
2019-02-24T10:24:11.803Z,82.03
2019-02-24T10:26:43.323Z,79.40
2019-02-24T10:29:13.335Z,89.97
2019-02-24T10:31:43.915Z,84.33
2019-02-24T10:34:14.549Z,82.80
2019-02-24T10:36:44.903Z,89.53
2019-02-24T10:39:14.928Z,87.37
2019-02-24T10:41:46.509Z,90.87
2019-02-24T10:44:17.042Z,85.83
2019-02-24T10:46:47.215Z,84.30
2019-02-24T10:49:21.652Z,82.90
2019-02-24T10:51:51.908Z,81.13
2019-02-24T10:54:22.548Z,90.87
2019-02-24T10:56:53.042Z,82.67
2019-02-24T10:59:23.325Z,90.40
2019-02-24T11:01:55.106Z,93.93
2019-02-24T11:04:25.482Z,87.47
2019-02-24T11:06:55.621Z,82.00
2019-02-24T11:09:25.809Z,84.27
2019-02-24T11:11:55.662Z,96.23
2019-02-24T11:14:25.803Z,74.20
2019-02-24T11:16:56.043Z,81.13
2019-02-24T11:19:27.363Z,83.90
2019-02-24T11:21:57.556Z,80.63
2019-02-24T11:24:27.522Z,79.50
2019-02-24T11:26:57.770Z,80.03
2019-02-24T11:29:28.626Z,207.60
2019-02-24T11:32:00.483Z,77.97
2019-02-24T11:34:30.542Z,64.53
2019-02-24T11:37:00.544Z,71.70
2019-02-24T11:39:30.769Z,66.13
2019-02-24T11:42:04.603Z,66.60
2019-02-24T11:44:34.619Z,65.93
2019-02-24T11:47:04.922Z,63.90
2019-02-24T11:49:36.617Z,68.90
2019-02-24T11:52:07.603Z,68.60
2019-02-24T11:54:37.628Z,68.97
2019-02-24T11:57:08.707Z,80.67
2019-02-24T11:59:38.845Z,75.20
2019-02-24T12:02:10.702Z,75.40
2019-02-24T12:04:40.655Z,68.10
2019-02-24T12:07:12.587Z,73.27
2019-02-24T12:09:44.293Z,75.63
2019-02-24T12:12:22.582Z,71.33
2019-02-24T12:14:55.578Z,80.20
2019-02-24T12:17:25.767Z,72.97
2019-02-24T12:19:56.059Z,83.13
2019-02-24T12:22:28.079Z,72.07
2019-02-24T12:24:58.443Z,67.47
2019-02-24T12:30:21.270Z,72.30
2019-02-24T12:32:51.457Z,72.00
2019-02-24T12:35:22.881Z,73.77
2019-02-24T12:37:53.725Z,78.17
2019-02-24T12:40:26.255Z,80.27
2019-02-24T12:43:00.915Z,77.60
2019-02-24T12:45:34.215Z,78.20
2019-02-24T12:48:04.347Z,76.77
2019-02-24T12:50:34.723Z,77.23
2019-02-24T12:53:20.470Z,67.57
2019-02-24T12:55:50.949Z,71.43
2019-02-24T12:58:25.425Z,75.67
2019-02-24T13:01:00.174Z,74.27
2019-02-24T13:03:30.523Z,71.97
2019-02-24T13:06:00.975Z,77.80
2019-02-24T13:08:42.092Z,77.40
2019-02-24T13:11:16.282Z,79.10
2019-02-24T13:13:51.403Z,77.00
2019-02-24T13:16:21.228Z,80.40
2019-02-24T13:18:51.416Z,76.37
2019-02-24T13:21:23.063Z,75.40
2019-02-24T13:23:53.160Z,82.73
2019-02-24T13:26:23.873Z,82.40
2019-02-24T13:28:54.029Z,84.87
2019-02-24T13:31:25.811Z,79.73
2019-02-24T13:33:56.003Z,81.07
2019-02-24T13:36:27.631Z,82.33
2019-02-24T13:38:59.510Z,89.93
2019-02-24T13:41:32.055Z,85.70
2019-02-24T13:44:04.611Z,88.33
2019-02-24T13:46:35.788Z,84.70
2019-02-24T13:49:05.855Z,85.20
2019-02-24T13:51:37.492Z,91.70
2019-02-24T13:54:08.574Z,75.93
2019-02-24T13:56:40.131Z,79.33
2019-02-24T13:59:13.923Z,86.90
2019-02-24T14:01:47.585Z,95.43
2019-02-24T14:04:20.143Z,88.03
2019-02-24T14:06:51.097Z,84.20
2019-02-24T14:09:22.510Z,84.73
2019-02-24T14:11:56.020Z,91.57
2019-02-24T14:14:38.347Z,80.87
2019-02-24T14:17:13.657Z,93.70
2019-02-24T14:19:48.568Z,87.90
2019-02-24T14:22:23.383Z,91.73
2019-02-24T14:25:04.515Z,95.33
2019-02-24T14:27:41.094Z,87.70
2019-02-24T14:30:18.896Z,89.00
2019-02-24T14:32:56.427Z,90.20
2019-02-24T14:35:29.246Z,93.37
2019-02-24T14:38:09.157Z,91.93
2019-02-24T14:40:42.651Z,101.50
2019-02-24T14:43:14.217Z,87.07
2019-02-24T14:45:51.025Z,92.17
2019-02-24T14:48:21.895Z,99.17
2019-02-24T14:51:05.073Z,100.17
2019-02-24T14:53:40.709Z,99.17
2019-02-24T14:56:16.693Z,95.33
2019-02-24T14:58:54.953Z,101.13
2019-02-24T15:01:33.338Z,91.80
2019-02-24T15:04:12.345Z,98.27
2019-02-24T15:06:43.534Z,98.63
2019-02-24T15:09:28.742Z,95.53
2019-02-24T15:12:14.106Z,105.07
2019-02-24T15:14:44.435Z,101.73
2019-02-24T15:17:15.278Z,94.10
2019-02-24T15:19:51.389Z,101.73
2019-02-24T15:22:22.550Z,102.07
2019-02-24T15:24:53.280Z,100.47
2019-02-24T15:27:27.505Z,105.90
2019-02-24T15:30:01.051Z,99.57
2019-02-24T15:32:33.115Z,93.17
2019-02-24T15:35:07.299Z,94.07
2019-02-24T15:37:48.689Z,97.87
2019-02-24T15:40:21.941Z,91.27
2019-02-24T15:42:52.020Z,93.07
2019-02-24T15:45:22.330Z,100.60
2019-02-24T15:47:52.869Z,98.20
2019-02-24T15:50:23.221Z,87.00
2019-02-24T15:52:53.379Z,90.83
2019-02-24T15:55:25.609Z,94.53
2019-02-24T15:57:55.801Z,97.20
2019-02-24T16:00:26.164Z,88.60
2019-02-24T16:03:01.585Z,95.77
2019-02-24T16:05:28.987Z,93.63
2019-02-24T16:07:59.455Z,96.17
2019-02-24T16:10:29.516Z,94.80
2019-02-24T16:13:03.116Z,100.70
2019-02-24T16:15:36.213Z,102.90
2019-02-24T16:18:06.907Z,106.50
2019-02-24T16:20:38.938Z,107.23
2019-02-24T16:23:16.111Z,107.90
2019-02-24T16:25:47.897Z,110.57
2019-02-24T16:28:17.973Z,120.20
2019-02-24T16:30:48.194Z,107.83
2019-02-24T16:33:29.879Z,115.90
2019-02-24T16:36:00.991Z,115.60
2019-02-24T16:38:33.048Z,121.93
2019-02-24T16:41:05.917Z,117.27
2019-02-24T16:43:36.238Z,118.43
2019-02-24T16:46:07.085Z,132.60
2019-02-24T16:48:37.395Z,120.70
2019-02-24T16:51:07.763Z,119.50
2019-02-24T16:53:40.218Z,118.30
2019-02-24T16:56:11.874Z,129.60
2019-02-24T16:58:42.533Z,130.93
2019-02-24T17:01:14.086Z,133.40
2019-02-24T17:03:46.177Z,133.37
2019-02-24T17:06:19.028Z,127.10
2019-02-24T17:08:52.007Z,130.93
2019-02-24T17:11:24.712Z,133.37
2019-02-24T17:13:57.895Z,137.87
2019-02-24T17:16:28.114Z,137.77
2019-02-24T17:18:58.218Z,139.33
2019-02-24T17:21:28.357Z,132.07
2019-02-24T17:23:58.662Z,124.83
2019-02-24T17:26:28.791Z,137.40
2019-02-24T17:28:58.957Z,129.77
2019-02-24T17:31:29.258Z,121.97
2019-02-24T17:33:59.295Z,123.87
2019-02-24T17:36:29.749Z,118.97
2019-02-24T17:39:00.037Z,130.53
2019-02-24T17:41:30.525Z,123.27
2019-02-24T17:44:02.157Z,122.23
2019-02-24T17:46:33.599Z,125.77
2019-02-24T17:49:03.802Z,114.57
2019-02-24T17:51:37.793Z,125.00
2019-02-24T17:54:09.192Z,109.37
2019-02-24T17:56:40.195Z,111.57
2019-02-24T17:59:13.754Z,104.23
2019-02-24T18:01:44.105Z,117.13
2019-02-24T18:04:14.023Z,105.77
2019-02-24T18:06:45.509Z,103.80
2019-02-24T18:09:17.040Z,106.80
2019-02-24T18:11:47.503Z,101.10
2019-02-24T18:14:18.139Z,105.00
2019-02-24T18:16:48.597Z,104.33
2019-02-24T18:19:19.058Z,112.30
2019-02-24T18:21:49.548Z,111.83
2019-02-24T18:24:19.909Z,105.73
2019-02-24T18:26:50.672Z,101.87
2019-02-24T18:29:22.481Z,102.00
2019-02-24T18:31:54.471Z,99.57
2019-02-24T18:34:26.572Z,100.50
2019-02-24T18:37:00.079Z,104.23
2019-02-24T18:39:32.249Z,102.77
2019-02-24T18:42:06.787Z,100.00
2019-02-24T18:44:37.559Z,100.40
2019-02-24T18:47:07.887Z,100.60
2019-02-24T18:49:39.717Z,103.20
2019-02-24T18:52:10.557Z,99.60
2019-02-24T18:54:41.194Z,93.47
2019-02-24T18:57:15.951Z,101.17
2019-02-24T18:59:46.963Z,104.00
2019-02-24T19:02:17.358Z,93.83
2019-02-24T19:04:49.325Z,99.77
2019-02-24T19:07:19.892Z,98.97
2019-02-24T19:09:50.556Z,106.10
2019-02-24T19:12:20.843Z,99.97
2019-02-24T19:14:51.071Z,96.97
2019-02-24T19:17:22.447Z,98.40
2019-02-24T19:19:54.349Z,99.27
2019-02-24T19:22:24.561Z,100.33
2019-02-24T19:24:58.056Z,105.00
2019-02-24T19:27:28.445Z,98.27
2019-02-24T19:29:58.970Z,96.23
2019-02-24T19:32:32.319Z,98.60
2019-02-24T19:35:02.905Z,98.90
2019-02-24T19:37:33.253Z,106.27
2019-02-24T19:40:07.947Z,115.37
2019-02-24T19:42:39.618Z,106.67
2019-02-24T19:45:12.963Z,112.53
2019-02-24T19:47:43.317Z,99.13
2019-02-24T19:50:19.865Z,105.80
2019-02-24T19:52:50.105Z,105.07
2019-02-24T19:55:20.294Z,103.50
2019-02-24T19:57:53.670Z,98.80
2019-02-24T20:00:26.005Z,101.30
2019-02-24T20:02:56.643Z,96.63
2019-02-24T20:05:27.074Z,107.43
2019-02-24T20:07:57.218Z,105.27
2019-02-24T20:10:29.240Z,101.17
2019-02-24T20:12:59.792Z,107.23
2019-02-24T20:15:30.238Z,107.13
2019-02-24T20:18:00.883Z,116.10
2019-02-24T20:20:32.743Z,111.90
2019-02-24T20:23:03.380Z,122.80
2019-02-24T20:25:33.769Z,119.83
2019-02-24T20:28:06.283Z,115.50
2019-02-24T20:30:37.869Z,115.60
2019-02-24T20:33:08.315Z,126.17
2019-02-24T20:35:38.855Z,117.30
2019-02-24T20:38:11.961Z,114.93
2019-02-24T20:40:45.357Z,114.30
2019-02-24T20:43:19.539Z,117.53
2019-02-24T20:45:49.947Z,119.50
2019-02-24T20:48:23.043Z,130.13
2019-02-24T20:50:54.786Z,117.50
2019-02-24T20:53:32.244Z,121.83
2019-02-24T20:56:05.503Z,119.17
2019-02-24T20:58:38.903Z,113.50
2019-02-24T21:01:16.293Z,111.57
2019-02-24T21:03:53.815Z,106.03
2019-02-24T21:06:24.464Z,97.20
2019-02-24T21:08:57.118Z,101.83
2019-02-24T21:11:34.571Z,95.67
2019-02-24T21:14:08.347Z,97.27
2019-02-24T21:16:46.662Z,105.83
2019-02-24T21:19:22.627Z,104.53
2019-02-24T21:21:54.803Z,105.53
2019-02-24T21:24:25.747Z,98.43
2019-02-24T21:26:56.001Z,93.80
2019-02-24T21:29:47.643Z,99.53
2019-02-24T21:32:22.187Z,102.03
2019-02-24T21:35:46.565Z,99.40
2019-02-24T21:38:08.553Z,108.67
2019-02-24T21:40:40.568Z,105.53
2019-02-24T21:43:24.865Z,112.73
2019-02-24T21:45:57.349Z,124.67
2019-02-24T21:48:29.097Z,127.63
2019-02-24T21:51:00.897Z,112.70
2019-02-24T21:53:31.107Z,119.83
2019-02-24T21:56:01.182Z,131.67
2019-02-24T21:58:31.992Z,127.03
2019-02-24T22:01:06.025Z,126.00
2019-02-24T22:03:54.527Z,125.93
2019-02-24T22:06:30.127Z,133.33
2019-02-24T22:09:21.450Z,137.10
2019-02-24T22:14:50.160Z,120.83
2019-02-24T22:17:24.300Z,128.07
2019-02-24T22:19:58.196Z,127.63
2019-02-24T22:22:38.479Z,120.93
2019-02-24T22:25:21.497Z,119.50
2019-02-24T22:27:49.819Z,126.40
2019-02-24T22:30:24.298Z,122.10
2019-02-24T22:32:57.605Z,114.93
2019-02-24T22:35:39.427Z,113.27
2019-02-24T22:41:22.011Z,111.40
2019-02-24T22:44:00.270Z,109.73
2019-02-24T22:46:50.652Z,110.57
2019-02-24T22:52:22.084Z,111.93
2019-02-24T22:55:02.092Z,112.20
2019-02-24T23:00:54.841Z,103.10
2019-02-24T23:03:35.219Z,97.93
2019-02-24T23:06:06.787Z,108.10
2019-02-24T23:08:40.233Z,90.23
2019-02-24T23:11:10.258Z,94.00
2019-02-24T23:13:40.374Z,90.80
2019-02-24T23:16:10.543Z,92.83
2019-02-24T23:18:41.660Z,88.83
2019-02-24T23:21:11.633Z,91.07
2019-02-24T23:23:41.691Z,102.07
2019-02-24T23:26:14.368Z,93.20
2019-02-24T23:28:44.483Z,96.30
2019-02-24T23:31:14.336Z,93.63
2019-02-24T23:33:45.362Z,95.07
2019-02-24T23:36:15.364Z,93.63
2019-02-24T23:38:45.602Z,92.30
2019-02-24T23:41:16.171Z,95.27
2019-02-24T23:43:46.105Z,115.17
2019-02-24T23:46:16.050Z,96.00
2019-02-24T23:48:46.046Z,102.77
2019-02-24T23:51:16.011Z,93.90
2019-02-24T23:53:45.969Z,96.40
2019-02-24T23:56:15.936Z,90.63
2019-02-24T23:58:45.982Z,100.13
